PST,Max TemperatureF,Mean TemperatureF,Min TemperatureF,Max Dew PointF,MeanDew PointF,Min DewpointF,Max Humidity, Mean Humidity, Min Humidity, Max Sea Level PressureIn, Mean Sea Level PressureIn, Min Sea Level PressureIn, Max VisibilityMiles, Mean VisibilityMiles, Min VisibilityMiles, Max Wind SpeedMPH, Mean Wind SpeedMPH, Max Gust SpeedMPH,PrecipitationIn, CloudCover, Events, WindDirDegrees
2013-2-1,78,46,15,79,49,14,100,95,86,30.41,30.34,30.29,10,10,10,9,4,,0.00,0,,200
2013-2-2,140,108,59,82,75,59,100,99,89,30.45,30.39,30.32,10,10,10,8,4,,0.00,0,,195
2013-2-3,46,32,19,39,23,16,93,78,40,30.30,30.24,30.19,10,10,9,9,2,,0.00,2,,194
2013-2-4,125,71,17,54,20,14,100,79,32,30.25,30.19,30.13,10,10,10,10,5,,0.00,0,,201
2013-2-5,50,36,23,28,23,18,93,69,30,30.13,30.02,29.93,10,10,10,10,5,,0.00,1,,203
2013-2-6,107,62,17,25,20,14,100,71,39,30.14,30.10,30.00,10,10,10,8,2,,0.00,0,,164
2013-2-7,59,37,15,50,20,14,93,65,32,30.12,29.93,29.79,10,10,2,21,8,26,0.00,2,,185
2013-2-8,32,28,24,28,25,19,100,88,75,29.80,29.69,29.63,10,4,0,15,6,18,0.01,8,,352
2013-2-9,30,24,19,21,18,14,86,78,55,29.98,29.86,29.71,10,6,1,22,9,21,0.00,7,,5
2013-2-10,127,66,1,79,17,0,100,76,55,30.07,29.97,29.89,10,9,4,16,6,21,0.00,7,,7
2013-2-11,66,33,0,66,7,-4,100,78,51,30.26,30.15,30.07,10,10,10,8,3,,0.00,3,,182
2013-2-12,35,19,3,19,9,0,93,73,44,30.37,30.32,30.26,10,10,10,9,5,,0.00,0,,194
2013-2-13,39,24,8,25,16,7,93,76,49,30.39,30.34,30.30,10,10,10,9,4,,0.00,0,,190
2013-2-14,39,26,12,27,19,9,93,79,56,30.48,30.40,30.32,10,10,10,9,4,,0.00,2,,143
2013-2-15,55,32,10,54,19,9,94,75,43,30.51,30.47,30.43,10,10,10,8,4,,0.00,0,,192
2013-2-16,59,37,15,57,22,10,94,68,32,30.43,30.26,30.05,10,10,10,10,6,,0.00,0,,209
2013-2-17,42,28,15,27,20,12,93,69,39,30.08,30.01,29.97,10,10,10,15,6,18,0.00,2,,31
2013-2-18,44,27,10,23,15,7,86,62,34,30.09,29.96,29.78,10,10,10,16,4,,0.00,1,,172
2013-2-19,44,35,26,30,21,16,93,61,37,29.78,29.61,29.50,10,8,1,17,10,20,0.00,4,,124
2013-2-20,32,16,1,25,16,-2,93,80,51,29.90,29.74,29.56,10,6,0,16,6,21,0.01,4,,4
2013-2-21,32,16,0,16,7,-6,92,74,48,30.06,29.99,29.88,10,10,10,13,5,,0.03,4,,174
2013-2-22,35,20,5,19,14,0,92,70,48,30.18,30.10,29.98,10,10,10,9,4,,0.04,3,,173
2013-2-23,32,24,15,23,16,7,93,72,40,30.12,29.99,29.77,10,8,0,25,7,41,0.00,6,,341
2013-2-24,32,18,5,16,10,0,93,71,41,30.27,30.22,30.12,10,10,4,13,6,17,0.00,4,,32
2013-2-25,44,22,1,25,11,-4,93,71,34,30.25,30.13,30.01,10,10,1,24,7,36,0.00,1,,200
2013-2-26,32,18,5,18,10,0,93,70,35,30.31,30.23,30.11,10,9,0,12,5,,0.00,2,,42
2013-2-27,39,20,0,16,6,-6,92,61,24,30.40,30.35,30.29,10,10,10,9,3,,0.00,1,,186
2013-2-28,53,34,14,41,17,9,86,61,25,30.53,30.44,30.36,10,10,10,9,5,,0.00,2,,192